^^
Station Historical Data
 
Daily Summary for November 24, 2017 Units:  Metric    English   Both
« Previous Day
Next Day »
Daily Weekly Monthly Yearly Custom
  Current: High: Low: Average:
Temperature: 4.3 °C 4.3 °C 0.1 °C 1.4 °C
Dew Point: 2.3 °C 2.3 °C -1.1 °C 0 °C
Humidity: 87 % 93 % 87 % 91 %
Wind Speed: 5.6 km/h 13.0 km/h 0.0 km/h 4.5 km/h
Wind Gust: 5.6 km/h 13.0 km/h - -
Wind:South - - WSW
Pressure: 1007.7 hPa 1007.7 hPa 1001.9 hPa -
Precipitation: 0.0 mm      
Historical Graphs
 
 
Tabular Data for November 24, 2017
Time Temperature Dew Point Pressure Wind Wind Speed Wind Gust Humidity Rainfall Rate (Hourly) solar Conditions
00:07 2.4 °C 0.7 °C 1002.3 hPa WSW 5.6 km/h 5.6 km/h 88 % 0.0 mm 0.0 W/m2 SCT
00:17 2.4 °C 0.6 °C 1001.9 hPa WSW 1.9 km/h 1.9 km/h 88 % 0.0 mm 0.0 W/m2 SCT
00:22 2.3 °C 0.5 °C 1001.9 hPa WSW 3.7 km/h 3.7 km/h 88 % 0.0 mm 0.0 W/m2 SCT
00:27 2.2 °C 0.4 °C 1001.9 hPa WSW 1.6 km/h   88 % 0.0 mm 0.0 W/m2 SCT
00:32 2.1 °C 0.2 °C 1001.9 hPa Calm     87 % 0.0 mm 0.0 W/m2 SCT
00:37 2.0 °C 0.1 °C 1001.9 hPa WSW 5.6 km/h 5.6 km/h 87 % 0.0 mm 0.0 W/m2 SCT
00:42 1.9 °C 0.1 °C 1001.9 hPa WSW 4.8 km/h 4.8 km/h 88 % 0.0 mm 0.0 W/m2 SCT
00:47 1.8 °C 0.1 °C 1001.9 hPa WSW 5.6 km/h 5.6 km/h 88 % 0.0 mm 0.0 W/m2 SCT
00:52 1.8 °C 0.0 °C 1002.3 hPa WSW 5.6 km/h 5.6 km/h 88 % 0.0 mm 0.0 W/m2 SCT
01:02 1.7 °C -0.1 °C 1002.3 hPa WSW 1.9 km/h 1.9 km/h 88 % 0.0 mm 0.0 W/m2 SCT
01:07 1.7 °C -0.1 °C 1002.3 hPa WSW 8.0 km/h 8.0 km/h 88 % 0.0 mm 0.0 W/m2 SCT
01:12 1.7 °C -0.1 °C 1002.3 hPa WSW 5.6 km/h 5.6 km/h 88 % 0.0 mm 0.0 W/m2 SCT
01:22 1.6 °C -0.2 °C 1002.6 hPa WSW 5.6 km/h 5.6 km/h 88 % 0.0 mm 0.0 W/m2 SCT
01:27 1.6 °C -0.2 °C 1002.6 hPa WSW 1.9 km/h 1.9 km/h 88 % 0.0 mm 0.0 W/m2 SCT
01:37 1.6 °C -0.1 °C 1002.6 hPa WSW 1.9 km/h 1.9 km/h 89 % 0.0 mm 0.0 W/m2 SCT
01:47 1.5 °C -0.1 °C 1002.9 hPa Calm     89 % 0.0 mm 0.0 W/m2 SCT
01:52 1.4 °C -0.2 °C 1002.9 hPa Calm     89 % 0.0 mm 0.0 W/m2 SCT
01:57 1.4 °C -0.2 °C 1002.9 hPa WSW 1.9 km/h 1.9 km/h 89 % 0.0 mm 0.0 W/m2 SCT
02:02 1.4 °C -0.2 °C 1002.9 hPa Calm     89 % 0.0 mm 0.0 W/m2 SCT
02:12 1.3 °C -0.3 °C 1002.9 hPa Calm     89 % 0.0 mm 0.0 W/m2 SCT
02:22 1.2 °C -0.4 °C 1003.3 hPa WSW 1.9 km/h   89 % 0.0 mm 0.0 W/m2 SCT
02:27 1.2 °C -0.4 °C 1003.3 hPa WSW 5.6 km/h 5.6 km/h 89 % 0.0 mm 0.0 W/m2 SCT
02:32 1.1 °C -0.6 °C 1002.9 hPa WSW 5.6 km/h 5.6 km/h 89 % 0.0 mm 0.0 W/m2 SCT
02:47 1.1 °C -0.4 °C 1003.3 hPa Calm     90 % 0.0 mm 0.0 W/m2 SCT
02:52 1.1 °C -0.3 °C 1003.3 hPa WSW 5.6 km/h 5.6 km/h 90 % 0.0 mm 0.0 W/m2 SCT
02:57 1.1 °C -0.3 °C 1003.3 hPa WSW 3.7 km/h 3.7 km/h 90 % 0.0 mm 0.0 W/m2 SCT
03:12 1.2 °C -0.2 °C 1003.3 hPa WSW 1.9 km/h   90 % 0.0 mm 0.0 W/m2 SCT
03:17 1.2 °C -0.3 °C 1003.3 hPa WSW 5.6 km/h 5.6 km/h 90 % 0.0 mm 0.0 W/m2 SCT
03:18 1.2 °C -0.3 °C 1003.6 hPa WSW 4.8 km/h 4.8 km/h 90 % 0.0 mm 0.0 W/m2 SCT
03:20 1.2 °C -0.3 °C 1003.6 hPa WSW 5.6 km/h 5.6 km/h 90 % 0.0 mm 0.0 W/m2 SCT
03:25 1.2 °C -0.3 °C 1003.6 hPa WSW 3.7 km/h 3.7 km/h 90 % 0.0 mm 0.0 W/m2 SCT
03:30 1.1 °C -0.3 °C 1003.6 hPa WSW 3.2 km/h 4.8 km/h 90 % 0.0 mm 0.0 W/m2 SCT
03:35 1.1 °C -0.3 °C 1003.6 hPa WSW 1.9 km/h 1.9 km/h 90 % 0.0 mm 0.0 W/m2 SCT
03:40 1.1 °C -0.4 °C 1003.6 hPa WSW 3.2 km/h 3.2 km/h 90 % 0.0 mm 0.0 W/m2 SCT
03:45 1.1 °C -0.4 °C 1003.6 hPa WSW 1.9 km/h   90 % 0.0 mm 0.0 W/m2 SCT
03:50 1.0 °C -0.4 °C 1003.6 hPa Calm     90 % 0.0 mm 0.0 W/m2 SCT
03:55 0.9 °C -0.5 °C 1003.6 hPa WSW 3.2 km/h 3.2 km/h 90 % 0.0 mm 0.0 W/m2 SCT
04:00 0.9 °C -0.3 °C 1003.6 hPa Calm   4.8 km/h 91 % 0.0 mm 0.0 W/m2 SCT
04:05 0.9 °C -0.6 °C 1003.6 hPa WSW 3.7 km/h 3.7 km/h 90 % 0.0 mm 0.0 W/m2 SCT
04:10 0.8 °C -0.6 °C 1003.9 hPa WSW 5.6 km/h 5.6 km/h 90 % 0.0 mm 0.0 W/m2 SCT
04:15 0.8 °C -0.7 °C 1003.9 hPa WSW 1.6 km/h 1.6 km/h 90 % 0.0 mm 0.0 W/m2 SCT
04:20 0.7 °C -0.6 °C 1003.9 hPa WSW 1.6 km/h 1.6 km/h 91 % 0.0 mm 0.0 W/m2 SCT
04:25 0.7 °C -0.6 °C 1004.3 hPa WSW 1.9 km/h 1.9 km/h 91 % 0.0 mm 0.0 W/m2 SCT
04:30 0.7 °C -0.6 °C 1004.3 hPa WSW 5.6 km/h 5.6 km/h 91 % 0.0 mm 0.0 W/m2 SCT
04:35 0.7 °C -0.6 °C 1004.6 hPa WSW 5.6 km/h 5.6 km/h 91 % 0.0 mm 0.0 W/m2 SCT
04:40 0.7 °C -0.6 °C 1004.6 hPa WSW 5.6 km/h 5.6 km/h 91 % 0.0 mm 0.0 W/m2 SCT
04:45 0.7 °C -0.6 °C 1004.6 hPa WSW 3.7 km/h 3.7 km/h 91 % 0.0 mm 0.0 W/m2 SCT
04:50 0.7 °C -0.6 °C 1004.6 hPa WSW 3.7 km/h 3.7 km/h 91 % 0.0 mm 0.0 W/m2 SCT
04:55 0.9 °C -0.3 °C 1004.6 hPa WSW 5.6 km/h 5.6 km/h 92 % 0.0 mm 0.0 W/m2 SCT
05:00 1.1 °C -0.1 °C 1004.6 hPa WSW 4.8 km/h 4.8 km/h 92 % 0.0 mm 0.0 W/m2 SCT
05:05 1.1 °C -0.1 °C 1004.6 hPa WSW 5.6 km/h 5.6 km/h 92 % 0.0 mm 0.0 W/m2 SCT
05:10 1.1 °C -0.1 °C 1005.0 hPa WSW 1.9 km/h 1.9 km/h 92 % 0.0 mm 0.0 W/m2 SCT
05:15 1.1 °C -0.1 °C 1005.0 hPa WSW 5.6 km/h 5.6 km/h 92 % 0.0 mm 0.0 W/m2 SCT
05:20 1.1 °C -0.1 °C 1005.0 hPa WSW 6.4 km/h 6.4 km/h 92 % 0.0 mm 0.0 W/m2 SCT
05:25 1.1 °C -0.1 °C 1005.0 hPa WSW 5.6 km/h 5.6 km/h 92 % 0.0 mm 0.0 W/m2 SCT
05:30 1.1 °C -0.1 °C 1005.0 hPa WSW 9.3 km/h 9.3 km/h 92 % 0.0 mm 0.0 W/m2 SCT
05:35 1.2 °C 0.0 °C 1005.0 hPa WSW 3.7 km/h 3.7 km/h 92 % 0.0 mm 0.0 W/m2 SCT
05:40 1.2 °C 0.0 °C 1005.0 hPa WSW 5.6 km/h 5.6 km/h 92 % 0.0 mm 0.0 W/m2 SCT
05:45 1.1 °C -0.1 °C 1005.0 hPa SW 3.7 km/h 3.7 km/h 92 % 0.0 mm 0.0 W/m2 SCT
05:50 1.1 °C -0.1 °C 1005.3 hPa SW 3.7 km/h 3.7 km/h 92 % 0.0 mm 0.0 W/m2 SCT
05:55 1.0 °C -0.2 °C 1005.3 hPa Calm     92 % 0.0 mm 0.0 W/m2 SCT
06:00 1.0 °C -0.2 °C 1005.3 hPa Calm     92 % 0.0 mm 0.0 W/m2 SCT
06:05 0.9 °C -0.2 °C 1005.3 hPa Calm     92 % 0.0 mm 0.0 W/m2 SCT
06:10 0.9 °C -0.3 °C 1005.3 hPa Calm     92 % 0.0 mm 0.0 W/m2 SCT
06:15 0.8 °C -0.3 °C 1005.3 hPa Calm     92 % 0.0 mm 0.0 W/m2 SCT
06:20 0.8 °C -0.4 °C 1005.3 hPa SW 5.6 km/h 5.6 km/h 92 % 0.0 mm 0.0 W/m2 SCT
06:25 0.7 °C -0.4 °C 1005.3 hPa SW 5.6 km/h 5.6 km/h 92 % 0.0 mm 0.0 W/m2 SCT
06:30 0.8 °C -0.4 °C 1005.3 hPa Calm     92 % 0.0 mm 0.0 W/m2 SCT
06:35 0.8 °C -0.4 °C 1005.6 hPa SW 1.9 km/h 1.9 km/h 92 % 0.0 mm 0.0 W/m2 SCT
06:40 0.7 °C -0.4 °C 1005.6 hPa Calm   0.2 km/h 92 % 0.0 mm 0.0 W/m2 SCT
06:45 0.7 °C -0.4 °C 1005.6 hPa Calm     92 % 0.0 mm 0.0 W/m2 SCT
06:50 0.7 °C -0.5 °C 1005.6 hPa SW 3.7 km/h 3.7 km/h 92 % 0.0 mm 0.0 W/m2 SCT
06:55 0.7 °C -0.5 °C 1005.6 hPa Calm     92 % 0.0 mm 0.0 W/m2 SCT
07:00 0.6 °C -0.6 °C 1005.6 hPa SW 1.9 km/h 1.9 km/h 92 % 0.0 mm 0.0 W/m2 SCT
07:10 0.4 °C -0.7 °C 1005.6 hPa SW 1.9 km/h   92 % 0.0 mm 0.0 W/m2 SCT
07:15 0.4 °C -0.8 °C 1006.0 hPa SW 1.9 km/h 1.9 km/h 92 % 0.0 mm 0.0 W/m2 SCT
07:20 0.3 °C -0.8 °C 1006.0 hPa SW 1.9 km/h 1.9 km/h 92 % 0.0 mm 0.0 W/m2 SCT
07:25 0.3 °C -0.9 °C 1005.6 hPa SW 3.7 km/h 3.7 km/h 92 % 0.0 mm 0.0 W/m2 SCT
07:30 0.3 °C -0.9 °C 1006.0 hPa Calm     92 % 0.0 mm 0.0 W/m2 SCT
07:40 0.2 °C -0.9 °C 1006.0 hPa SW 1.9 km/h 1.9 km/h 92 % 0.0 mm 0.0 W/m2 SCT
07:45 0.2 °C -1.0 °C 1006.0 hPa SW 3.7 km/h 3.7 km/h 92 % 0.0 mm 0.0 W/m2 SCT
07:50 0.2 °C -0.9 °C 1006.0 hPa SW 1.9 km/h 1.9 km/h 92 % 0.0 mm 0.0 W/m2 SCT
07:55 0.2 °C -1.0 °C 1006.3 hPa SW 5.6 km/h 5.6 km/h 92 % 0.0 mm 5.0 W/m2 SCT
08:00 0.1 °C -1.1 °C 1006.0 hPa SW 5.6 km/h 5.6 km/h 92 % 0.0 mm 7.0 W/m2 SCT
08:05 0.2 °C -1.0 °C 1006.3 hPa WSW 7.4 km/h 7.4 km/h 92 % 0.0 mm 9.0 W/m2 SCT
08:10 0.3 °C -0.7 °C 1006.3 hPa SW 7.4 km/h 7.4 km/h 93 % 0.0 mm 11.0 W/m2 SCT
08:15 0.4 °C -0.6 °C 1006.3 hPa WSW 5.6 km/h 5.6 km/h 93 % 0.0 mm 18.0 W/m2 SCT
08:20 0.5 °C -0.5 °C 1006.3 hPa South 3.7 km/h 3.7 km/h 93 % 0.0 mm 23.0 W/m2 SCT
08:25 0.6 °C -0.4 °C 1006.3 hPa SSW 3.2 km/h 3.2 km/h 93 % 0.0 mm 21.0 W/m2 SCT
08:35 0.8 °C -0.2 °C 1006.3 hPa SW 5.6 km/h 5.6 km/h 93 % 0.0 mm 14.0 W/m2 SCT
08:40 1.0 °C 0.0 °C 1006.3 hPa WSW 7.4 km/h 7.4 km/h 93 % 0.0 mm 16.0 W/m2 SCT
08:45 1.2 °C 0.2 °C 1006.7 hPa WSW 9.3 km/h 9.3 km/h 93 % 0.0 mm 26.0 W/m2 SCT
08:50 1.3 °C 0.3 °C 1006.7 hPa West 7.4 km/h 7.4 km/h 93 % 0.0 mm 25.0 W/m2 SCT
08:55 1.4 °C 0.4 °C 1006.7 hPa WSW 6.4 km/h 6.4 km/h 93 % 0.0 mm 30.0 W/m2 SCT
09:00 1.5 °C 0.5 °C 1006.7 hPa WSW 7.4 km/h 7.4 km/h 93 % 0.0 mm 26.0 W/m2 SCT
09:05 1.6 °C 0.6 °C 1006.7 hPa WSW 5.6 km/h 5.6 km/h 93 % 0.0 mm 21.0 W/m2 SCT
09:10 1.6 °C 0.6 °C 1006.7 hPa WSW 11.3 km/h 11.3 km/h 93 % 0.0 mm 25.0 W/m2 SCT
09:15 1.6 °C 0.6 °C 1006.7 hPa WSW 9.7 km/h 9.7 km/h 93 % 0.0 mm 23.0 W/m2 SCT
09:20 1.7 °C 0.7 °C 1006.7 hPa West 9.3 km/h 9.3 km/h 93 % 0.0 mm 25.0 W/m2 SCT
09:25 1.7 °C 0.6 °C 1007.0 hPa WSW 7.4 km/h 7.4 km/h 92 % 0.0 mm 25.0 W/m2 SCT
09:30 1.8 °C 0.6 °C 1007.0 hPa West 11.1 km/h 11.1 km/h 92 % 0.0 mm 25.0 W/m2 SCT
09:35 1.8 °C 0.6 °C 1007.0 hPa SW 11.1 km/h 11.1 km/h 92 % 0.0 mm 26.0 W/m2 SCT
09:45 1.9 °C 0.8 °C 1007.3 hPa SW 7.4 km/h 7.4 km/h 92 % 0.0 mm 26.0 W/m2 SCT
09:50 2.0 °C 0.8 °C 1007.3 hPa SW 7.4 km/h 7.4 km/h 92 % 0.0 mm 26.0 W/m2 SCT
09:55 2.1 °C 0.9 °C 1007.3 hPa SW 9.3 km/h 9.3 km/h 92 % 0.0 mm 26.0 W/m2 SCT
10:05 2.4 °C 1.2 °C 1007.3 hPa West 13.0 km/h 13.0 km/h 92 % 0.0 mm 28.0 W/m2 SCT
10:10 2.5 °C 1.2 °C 1007.3 hPa SSW 11.1 km/h 11.1 km/h 91 % 0.0 mm 28.0 W/m2 SCT
10:15 2.6 °C 1.3 °C 1007.3 hPa SSW 5.6 km/h 5.6 km/h 91 % 0.0 mm 28.0 W/m2 SCT
10:20 2.7 °C 1.4 °C 1007.7 hPa WSW 13.0 km/h 13.0 km/h 91 % 0.0 mm 30.0 W/m2 SCT
10:25 2.8 °C 1.3 °C 1007.7 hPa West 5.6 km/h 5.6 km/h 90 % 0.0 mm 30.0 W/m2 SCT
10:35 3.1 °C 1.6 °C 1007.7 hPa WSW 7.4 km/h 7.4 km/h 90 % 0.0 mm 114.0 W/m2 SCT
10:40 3.2 °C 1.7 °C 1007.7 hPa South 5.6 km/h 5.6 km/h 90 % 0.0 mm 141.0 W/m2 SCT
10:45 3.3 °C 1.6 °C 1007.7 hPa West 5.6 km/h 5.6 km/h 89 % 0.0 mm 165.0 W/m2 SCT
10:46 3.3 °C 1.6 °C 1007.7 hPa West 3.7 km/h 3.7 km/h 89 % 0.0 mm 169.0 W/m2 SCT
10:51 3.4 °C 1.7 °C 1007.7 hPa South 9.3 km/h 9.3 km/h 89 % 0.0 mm 179.0 W/m2 SCT
10:56 3.5 °C 1.7 °C 1007.7 hPa SW 5.6 km/h 5.6 km/h 88 % 0.0 mm 190.0 W/m2 SCT
11:01 3.6 °C 1.8 °C 1007.7 hPa West 7.4 km/h 7.4 km/h 88 % 0.0 mm 193.0 W/m2 SCT
11:06 3.8 °C 2.0 °C 1007.7 hPa WSW 7.4 km/h 7.4 km/h 88 % 0.0 mm 195.0 W/m2 SCT
11:11 4.1 °C 2.2 °C 1007.7 hPa SW 3.7 km/h 3.7 km/h 88 % 0.0 mm 197.0 W/m2 SCT
11:16 4.3 °C 2.3 °C 1007.7 hPa South 5.6 km/h 5.6 km/h 87 % 0.0 mm 197.0 W/m2 SCT
Billingham Weather Station
Compliments of Weather Underground - 2 mb